createdAt,value
2022-07-25T00:00:45.953Z,4.80
2022-07-25T00:03:14.056Z,4.88
2022-07-25T00:05:45.614Z,4.80
2022-07-25T00:08:12.780Z,4.20
2022-07-25T00:10:39.844Z,4.43
2022-07-25T00:13:07.045Z,4.63
2022-07-25T00:15:34.257Z,4.88
2022-07-25T00:18:01.865Z,4.07
2022-07-25T00:20:28.899Z,5.10
2022-07-25T00:22:56.030Z,4.68
2022-07-25T00:25:23.100Z,4.60
2022-07-25T00:27:50.210Z,4.47
2022-07-25T00:30:17.326Z,4.82
2022-07-25T00:32:44.384Z,4.30
2022-07-25T00:35:11.449Z,4.60
2022-07-25T00:37:38.631Z,4.88
2022-07-25T00:40:06.113Z,4.28
2022-07-25T00:42:33.489Z,4.03
2022-07-25T00:45:00.606Z,4.72
2022-07-25T00:47:27.772Z,4.80
2022-07-25T00:49:54.823Z,5.43
2022-07-25T00:52:23.843Z,4.65
2022-07-25T00:54:51.359Z,4.85
2022-07-25T00:57:18.484Z,4.40
2022-07-25T00:59:45.880Z,4.82
2022-07-25T01:02:12.920Z,4.90
2022-07-25T01:04:40.676Z,4.47
2022-07-25T01:07:08.221Z,4.63
2022-07-25T01:09:35.641Z,4.40
2022-07-25T01:12:02.980Z,5.07
2022-07-25T01:14:30.840Z,4.75
2022-07-25T01:16:57.907Z,4.90
2022-07-25T01:19:25.013Z,4.90
2022-07-25T01:21:52.131Z,5.25
2022-07-25T01:24:19.192Z,4.32
2022-07-25T01:26:46.281Z,4.05
2022-07-25T01:29:13.411Z,4.15
2022-07-25T01:31:40.541Z,4.32
2022-07-25T01:34:07.931Z,4.40
2022-07-25T01:36:35.260Z,4.10
2022-07-25T01:39:02.516Z,4.15
2022-07-25T01:41:29.585Z,4.32
2022-07-25T01:43:56.877Z,4.63
2022-07-25T01:46:24.045Z,3.85
2022-07-25T01:48:51.191Z,4.40
2022-07-25T01:51:19.878Z,4.45
2022-07-25T01:53:48.022Z,3.95
2022-07-25T01:56:15.512Z,4.07
2022-07-25T01:58:42.628Z,4.38
2022-07-25T02:01:09.734Z,4.47
2022-07-25T02:03:36.821Z,3.88
2022-07-25T02:06:06.759Z,4.53
2022-07-25T02:08:34.907Z,4.30
2022-07-25T02:11:02.240Z,4.10
2022-07-25T02:13:29.412Z,4.28
2022-07-25T02:15:56.465Z,3.85
2022-07-25T02:18:23.595Z,3.85
2022-07-25T02:20:50.716Z,4.38
2022-07-25T02:23:17.761Z,4.10
2022-07-25T02:25:44.867Z,3.83
2022-07-25T02:28:11.997Z,3.65
2022-07-25T02:30:39.513Z,4.75
2022-07-25T02:33:06.698Z,3.85
2022-07-25T02:35:33.982Z,4.35
2022-07-25T02:38:01.142Z,4.00
2022-07-25T02:40:28.326Z,3.42
2022-07-25T02:42:55.441Z,4.47
2022-07-25T02:45:22.972Z,4.07
2022-07-25T02:47:50.122Z,4.05
2022-07-25T02:50:17.328Z,4.10
2022-07-25T02:52:44.617Z,4.30
2022-07-25T02:55:12.218Z,4.20
2022-07-25T02:57:39.543Z,4.53
2022-07-25T03:00:07.709Z,4.60
2022-07-25T03:02:34.777Z,5.20
2022-07-25T03:05:01.956Z,5.47
2022-07-25T03:07:29.068Z,5.30
2022-07-25T03:09:56.121Z,5.80
2022-07-25T03:12:23.317Z,5.60
2022-07-25T03:14:50.654Z,6.30
2022-07-25T03:17:17.803Z,5.65
2022-07-25T03:19:45.086Z,5.93
2022-07-25T03:22:12.152Z,6.28
2022-07-25T03:24:39.259Z,6.30
2022-07-25T03:27:06.378Z,7.30
2022-07-25T03:29:33.555Z,6.82
2022-07-25T03:32:00.824Z,7.20
2022-07-25T03:34:28.260Z,6.40
2022-07-25T03:36:55.354Z,7.40
2022-07-25T03:39:22.537Z,7.40
2022-07-25T03:41:49.692Z,7.45
2022-07-25T03:44:16.934Z,8.05
2022-07-25T03:46:43.961Z,8.05
2022-07-25T03:49:11.123Z,7.60
2022-07-25T03:51:38.289Z,7.40
2022-07-25T03:54:06.816Z,7.60
2022-07-25T03:56:45.591Z,6.78
2022-07-25T03:59:15.273Z,6.90
2022-07-25T04:01:44.518Z,7.47
2022-07-25T04:04:11.805Z,7.25
2022-07-25T04:06:39.983Z,7.70
2022-07-25T04:09:08.409Z,7.30
2022-07-25T04:11:36.211Z,7.18
2022-07-25T04:14:04.070Z,7.15
2022-07-25T04:16:32.306Z,7.40
2022-07-25T04:18:59.644Z,7.65
2022-07-25T04:21:28.927Z,6.93
2022-07-25T04:23:56.049Z,7.70
2022-07-25T04:26:23.198Z,6.93
2022-07-25T04:28:50.247Z,6.57
2022-07-25T04:31:17.571Z,6.90
2022-07-25T04:33:45.042Z,7.53
2022-07-25T04:36:12.557Z,7.18
2022-07-25T04:38:39.634Z,8.00
2022-07-25T04:41:06.801Z,8.43
2022-07-25T04:43:33.887Z,7.97
2022-07-25T04:46:01.741Z,7.90
2022-07-25T04:48:29.074Z,8.50
2022-07-25T04:50:56.193Z,7.65
2022-07-25T04:53:23.239Z,7.43
2022-07-25T04:55:50.483Z,8.07
2022-07-25T04:58:17.531Z,7.50
2022-07-25T05:00:44.776Z,7.20
2022-07-25T05:03:12.096Z,7.65
2022-07-25T05:05:39.169Z,7.88
2022-07-25T05:08:06.387Z,8.02
2022-07-25T05:10:33.800Z,7.75
2022-07-25T05:13:00.852Z,7.68
2022-07-25T05:15:27.973Z,6.80
2022-07-25T05:17:55.100Z,7.82
2022-07-25T05:20:22.323Z,6.78
2022-07-25T05:22:49.384Z,6.35
2022-07-25T05:25:16.564Z,6.45
2022-07-25T05:27:43.960Z,6.15
2022-07-25T05:30:12.351Z,6.15
2022-07-25T05:32:40.242Z,6.07
2022-07-25T05:35:09.221Z,5.22
2022-07-25T05:37:37.042Z,5.38
2022-07-25T05:40:06.322Z,5.38
2022-07-25T05:42:33.530Z,5.40
2022-07-25T05:45:01.009Z,5.20
2022-07-25T05:47:28.293Z,4.72
2022-07-25T05:49:55.483Z,5.15
2022-07-25T05:52:22.875Z,5.05
2022-07-25T05:54:51.215Z,6.07
2022-07-25T05:57:18.275Z,5.82
2022-07-25T05:59:46.804Z,5.95
2022-07-25T06:02:14.005Z,5.68
2022-07-25T06:04:41.141Z,6.32
2022-07-25T06:07:08.200Z,6.05
2022-07-25T06:09:35.978Z,6.00
2022-07-25T06:12:03.120Z,5.65
2022-07-25T06:14:31.339Z,5.90
2022-07-25T06:16:58.909Z,5.63
2022-07-25T06:19:25.983Z,5.85
2022-07-25T06:21:53.087Z,5.95
2022-07-25T06:24:20.213Z,6.03
2022-07-25T06:26:47.294Z,6.35
2022-07-25T06:29:14.485Z,6.03
2022-07-25T06:31:41.785Z,6.40
2022-07-25T06:34:13.508Z,6.93
2022-07-25T06:36:40.642Z,6.05
2022-07-25T06:39:07.843Z,5.82
2022-07-25T06:41:36.983Z,6.35
2022-07-25T06:44:04.807Z,6.35
2022-07-25T06:46:33.365Z,6.20
2022-07-25T06:49:00.696Z,6.85
2022-07-25T06:51:27.930Z,7.50
2022-07-25T06:53:55.144Z,6.40
2022-07-25T06:56:22.413Z,6.70
2022-07-25T06:58:49.571Z,6.88
2022-07-25T07:01:16.810Z,6.45
2022-07-25T07:03:44.067Z,5.47
2022-07-25T07:06:11.234Z,6.43
2022-07-25T07:08:38.490Z,5.18
2022-07-25T07:11:07.579Z,5.75
2022-07-25T07:13:34.765Z,5.97
2022-07-25T07:16:01.975Z,5.78
2022-07-25T07:18:29.148Z,5.13
2022-07-25T07:20:56.223Z,5.57
2022-07-25T07:23:24.618Z,5.50
2022-07-25T07:25:51.929Z,4.97
2022-07-25T07:28:20.360Z,4.85
2022-07-25T07:33:34.865Z,5.28
2022-07-25T07:36:02.910Z,4.20
2022-07-25T07:38:30.183Z,4.68
2022-07-25T07:40:57.272Z,4.63
2022-07-25T07:43:29.672Z,4.53
2022-07-25T07:46:01.148Z,4.30
2022-07-25T07:48:29.744Z,4.20
2022-07-25T07:50:58.602Z,4.03
2022-07-25T07:53:44.214Z,4.60
2022-07-25T07:56:12.317Z,3.97
2022-07-25T07:58:39.602Z,3.83
2022-07-25T08:01:07.123Z,3.50
2022-07-25T08:03:34.405Z,3.97
2022-07-25T08:06:01.619Z,3.47
2022-07-25T08:08:31.369Z,3.58
2022-07-25T08:10:59.629Z,3.65
2022-07-25T08:13:31.615Z,3.13
2022-07-25T08:16:03.563Z,3.25
2022-07-25T08:18:33.391Z,3.58
2022-07-25T08:21:03.494Z,3.30
2022-07-25T08:23:32.119Z,3.10
2022-07-25T08:25:59.673Z,3.53
2022-07-25T08:28:27.085Z,2.85
2022-07-25T08:30:54.705Z,3.33
2022-07-25T08:33:21.940Z,3.10
2022-07-25T08:35:53.852Z,3.22
2022-07-25T08:38:22.428Z,2.90
2022-07-25T08:40:50.350Z,2.53
2022-07-25T08:43:18.276Z,3.05
2022-07-25T08:45:52.928Z,3.58
2022-07-25T08:48:22.329Z,3.55
2022-07-25T08:50:50.259Z,4.30
2022-07-25T08:53:35.733Z,3.75
2022-07-25T08:56:12.511Z,3.90
2022-07-25T08:58:41.645Z,3.97
2022-07-25T09:01:09.314Z,3.92
2022-07-25T09:03:36.767Z,4.30
2022-07-25T09:06:17.138Z,4.45
2022-07-25T09:08:58.903Z,5.07
2022-07-25T09:11:29.013Z,5.05
2022-07-25T09:14:15.364Z,5.40
2022-07-25T09:16:44.786Z,5.07
2022-07-25T09:19:14.703Z,5.93
2022-07-25T09:21:43.251Z,5.78
2022-07-25T09:24:17.409Z,5.05
2022-07-25T09:26:46.764Z,6.25
2022-07-25T09:29:23.368Z,5.43
2022-07-25T09:31:51.528Z,4.93
2022-07-25T09:34:34.366Z,4.78
2022-07-25T09:37:03.219Z,4.80
2022-07-25T09:39:45.527Z,4.50
2022-07-25T09:42:19.351Z,5.00
2022-07-25T09:45:03.123Z,5.28
2022-07-25T09:47:32.396Z,5.50
2022-07-25T09:49:59.562Z,4.63
2022-07-25T09:52:26.858Z,5.43
2022-07-25T09:54:55.327Z,5.40
2022-07-25T09:57:24.303Z,5.03
2022-07-25T09:59:51.612Z,4.90
2022-07-25T10:02:44.722Z,4.57
2022-07-25T10:05:21.268Z,4.78
2022-07-25T10:07:51.303Z,4.50
2022-07-25T10:10:25.272Z,4.68
2022-07-25T10:13:08.014Z,4.75
2022-07-25T10:15:46.295Z,4.80
2022-07-25T10:18:15.166Z,4.57
2022-07-25T10:20:43.254Z,3.58
2022-07-25T10:23:26.620Z,4.20
2022-07-25T10:26:08.067Z,4.45
2022-07-25T10:31:21.924Z,4.07
2022-07-25T10:33:55.306Z,4.28
2022-07-25T10:36:23.559Z,4.55
2022-07-25T10:38:57.851Z,4.68
2022-07-25T10:41:28.986Z,5.07
2022-07-25T10:44:02.897Z,4.30
2022-07-25T10:46:31.189Z,4.68
2022-07-25T10:49:05.001Z,4.93
2022-07-25T10:51:41.149Z,4.68
2022-07-25T10:54:17.033Z,4.70
2022-07-25T10:56:57.364Z,4.45
2022-07-25T10:59:29.449Z,5.10
2022-07-25T11:01:57.152Z,5.20
2022-07-25T11:04:24.657Z,5.20
2022-07-25T11:06:51.794Z,4.80
2022-07-25T11:09:28.169Z,4.97
2022-07-25T11:11:59.652Z,4.80
2022-07-25T11:14:33.532Z,4.95
2022-07-25T11:17:23.727Z,4.32
2022-07-25T11:19:55.029Z,4.63
2022-07-25T11:22:22.744Z,4.28
2022-07-25T11:24:49.930Z,4.15
2022-07-25T11:27:23.110Z,3.85
2022-07-25T11:29:50.725Z,3.10
2022-07-25T11:32:18.826Z,2.85
2022-07-25T11:34:52.599Z,2.80
2022-07-25T11:37:21.294Z,3.33
2022-07-25T11:39:49.004Z,3.70
2022-07-25T11:42:19.001Z,3.00
2022-07-25T11:44:49.141Z,2.88
2022-07-25T11:47:28.450Z,3.33
2022-07-25T11:50:01.516Z,3.45
2022-07-25T11:52:34.766Z,3.03
2022-07-25T11:55:10.498Z,2.80
2022-07-25T11:57:40.903Z,2.22
2022-07-25T12:00:26.861Z,2.40
2022-07-25T12:02:54.469Z,2.20
2022-07-25T12:05:31.725Z,1.90
2022-07-25T12:08:07.785Z,1.70
2022-07-25T12:10:36.630Z,1.90
2022-07-25T12:13:04.559Z,1.52
2022-07-25T12:15:35.520Z,1.20
2022-07-25T12:18:03.375Z,1.25
2022-07-25T12:20:34.264Z,0.90
2022-07-25T12:23:07.224Z,0.82
2022-07-25T12:25:36.131Z,0.80
2022-07-25T12:28:03.668Z,0.73
2022-07-25T12:30:31.438Z,0.85
2022-07-25T12:32:59.702Z,0.80
2022-07-25T12:35:27.708Z,0.80
2022-07-25T12:37:56.141Z,1.10
2022-07-25T12:40:23.460Z,1.25
2022-07-25T12:42:51.017Z,1.27
2022-07-25T12:45:18.380Z,1.83
2022-07-25T12:47:47.401Z,1.70
2022-07-25T12:50:16.517Z,1.95
2022-07-25T12:52:44.780Z,1.80
2022-07-25T12:55:15.208Z,1.80
2022-07-25T12:57:42.662Z,2.05
2022-07-25T13:00:13.315Z,2.10
2022-07-25T13:02:40.843Z,2.05
2022-07-25T13:05:08.580Z,2.35
2022-07-25T13:07:35.934Z,2.20
2022-07-25T13:10:04.097Z,1.98
2022-07-25T13:12:31.458Z,2.30
2022-07-25T13:14:59.128Z,2.15
2022-07-25T13:17:27.878Z,2.00
2022-07-25T13:19:56.032Z,2.40
2022-07-25T13:22:23.338Z,2.47
2022-07-25T13:24:50.852Z,2.22
2022-07-25T13:27:22.643Z,2.20
2022-07-25T13:29:56.420Z,2.30
2022-07-25T13:32:24.411Z,2.20
2022-07-25T13:34:51.524Z,2.40
2022-07-25T13:37:18.744Z,2.20
2022-07-25T13:39:45.936Z,2.20
2022-07-25T13:42:13.140Z,2.40
2022-07-25T13:44:40.307Z,2.33
2022-07-25T13:47:07.478Z,2.35
2022-07-25T13:49:34.712Z,2.47
2022-07-25T13:52:01.867Z,2.60
2022-07-25T13:54:28.917Z,2.60
2022-07-25T13:56:56.033Z,2.55
2022-07-25T13:59:23.363Z,2.70
2022-07-25T14:01:51.132Z,2.30
2022-07-25T14:04:18.337Z,2.72
2022-07-25T14:06:45.585Z,2.45
2022-07-25T14:09:12.652Z,2.35
2022-07-25T14:11:39.876Z,2.20
2022-07-25T14:14:07.025Z,2.17
2022-07-25T14:16:34.597Z,2.03
2022-07-25T14:19:02.476Z,2.60
2022-07-25T14:21:30.399Z,2.17
2022-07-25T14:23:57.523Z,2.05
2022-07-25T14:26:24.779Z,2.80
2022-07-25T14:28:52.295Z,2.58
2022-07-25T14:31:19.419Z,2.75
2022-07-25T14:33:46.579Z,2.60
2022-07-25T14:36:13.870Z,2.40
2022-07-25T14:38:40.925Z,2.35
2022-07-25T14:41:12.820Z,2.67
2022-07-25T14:43:41.880Z,2.28
2022-07-25T14:46:09.390Z,2.03
2022-07-25T14:48:38.017Z,2.42
2022-07-25T14:51:05.921Z,2.30
2022-07-25T14:53:34.084Z,2.40
2022-07-25T14:56:03.641Z,2.33
2022-07-25T14:58:31.621Z,2.20
2022-07-25T15:00:58.872Z,2.45
2022-07-25T15:03:26.297Z,2.08
2022-07-25T15:05:53.584Z,2.40
2022-07-25T15:08:20.710Z,2.58
2022-07-25T15:10:48.079Z,2.05
2022-07-25T15:13:31.992Z,2.60
2022-07-25T15:16:00.029Z,2.03
2022-07-25T15:18:27.541Z,2.45
2022-07-25T15:20:55.572Z,2.42
2022-07-25T15:23:25.073Z,2.22
2022-07-25T15:26:03.200Z,2.15
2022-07-25T15:28:34.090Z,2.05
2022-07-25T15:31:01.442Z,2.50
2022-07-25T15:33:29.118Z,2.50
2022-07-25T15:35:56.295Z,2.40
2022-07-25T15:38:24.184Z,2.42
2022-07-25T15:40:51.428Z,2.70
2022-07-25T15:43:18.523Z,2.42
2022-07-25T15:45:46.534Z,2.58
2022-07-25T15:48:15.528Z,3.10
2022-07-25T15:50:45.296Z,2.90
2022-07-25T15:53:12.781Z,2.50
2022-07-25T15:55:41.491Z,3.70
2022-07-25T15:58:09.764Z,3.83
2022-07-25T16:00:38.685Z,3.20
2022-07-25T16:03:06.226Z,2.90
2022-07-25T16:05:34.123Z,2.63
2022-07-25T16:08:02.268Z,2.75
2022-07-25T16:10:33.138Z,2.65
2022-07-25T16:13:01.229Z,3.10
2022-07-25T16:15:28.772Z,2.85
2022-07-25T16:18:01.887Z,2.80
2022-07-25T16:20:31.813Z,5.22
2022-07-25T16:23:00.564Z,8.57
2022-07-25T16:25:28.815Z,6.85
2022-07-25T16:27:56.894Z,3.28
2022-07-25T16:30:24.113Z,3.13
2022-07-25T16:32:51.397Z,2.80
2022-07-25T16:35:18.827Z,2.67
2022-07-25T16:37:45.929Z,2.97
2022-07-25T16:40:14.195Z,2.80
2022-07-25T16:42:41.737Z,2.95
2022-07-25T16:45:09.522Z,2.90
2022-07-25T16:47:37.196Z,2.97
2022-07-25T16:50:04.712Z,3.15
2022-07-25T16:52:31.780Z,2.60
2022-07-25T16:54:59.615Z,3.10
2022-07-25T16:57:26.774Z,2.58
2022-07-25T16:59:54.186Z,2.72
2022-07-25T17:02:27.634Z,2.90
2022-07-25T17:04:57.107Z,3.17
2022-07-25T17:07:24.945Z,2.72
2022-07-25T17:09:52.562Z,2.72
2022-07-25T17:12:20.071Z,2.75
2022-07-25T17:14:47.503Z,2.40
2022-07-25T17:17:15.053Z,2.83
2022-07-25T17:19:42.824Z,2.60
2022-07-25T17:22:10.932Z,2.42
2022-07-25T17:24:39.121Z,3.28
2022-07-25T17:27:07.686Z,2.50
2022-07-25T17:29:35.199Z,2.97
2022-07-25T17:32:03.021Z,2.80
2022-07-25T17:34:30.183Z,3.25
2022-07-25T17:36:57.492Z,2.63
2022-07-25T17:39:25.478Z,2.90
2022-07-25T17:41:52.814Z,2.80
2022-07-25T17:44:20.452Z,2.90
2022-07-25T17:46:50.287Z,3.17
2022-07-25T17:49:17.819Z,3.50
2022-07-25T17:51:45.042Z,3.58
2022-07-25T17:54:12.543Z,3.42
2022-07-25T17:56:40.287Z,3.20
2022-07-25T17:59:08.766Z,3.28
2022-07-25T18:01:36.334Z,3.05
2022-07-25T18:04:04.494Z,3.42
2022-07-25T18:06:32.511Z,3.30
2022-07-25T18:08:59.954Z,3.30
2022-07-25T18:11:27.925Z,3.38
2022-07-25T18:13:55.329Z,3.45
2022-07-25T18:16:22.912Z,3.13
2022-07-25T18:18:50.446Z,2.97
2022-07-25T18:21:17.645Z,3.38
2022-07-25T18:23:45.044Z,3.25
2022-07-25T18:26:12.839Z,3.30
2022-07-25T18:28:40.313Z,3.38
2022-07-25T18:31:08.864Z,2.92
2022-07-25T18:33:36.446Z,3.47
2022-07-25T18:36:07.569Z,3.10
2022-07-25T18:38:36.218Z,3.58
2022-07-25T18:41:27.678Z,3.70
2022-07-25T18:43:52.572Z,3.80
2022-07-25T18:46:20.205Z,3.53
2022-07-25T18:48:47.754Z,3.58
2022-07-25T18:51:15.055Z,4.13
2022-07-25T18:53:46.110Z,3.80
2022-07-25T18:56:15.994Z,3.95
2022-07-25T18:58:44.745Z,3.83
2022-07-25T19:01:12.477Z,3.53
2022-07-25T19:03:40.967Z,3.65
2022-07-25T19:06:09.599Z,4.40
2022-07-25T19:08:37.155Z,4.00
2022-07-25T19:11:04.800Z,4.35
2022-07-25T19:13:48.915Z,4.28
2022-07-25T19:16:17.313Z,4.22
2022-07-25T19:18:44.835Z,4.18
2022-07-25T19:21:11.981Z,4.30
2022-07-25T19:23:39.323Z,4.80
2022-07-25T19:26:06.660Z,4.88
2022-07-25T19:28:35.226Z,4.72
2022-07-25T19:31:02.637Z,4.85
2022-07-25T19:33:34.773Z,4.75
2022-07-25T19:36:04.335Z,4.88
2022-07-25T19:38:32.085Z,4.97
2022-07-25T19:40:59.554Z,4.68
2022-07-25T19:43:27.043Z,5.32
2022-07-25T19:45:54.557Z,5.28
2022-07-25T19:48:24.049Z,5.07
2022-07-25T19:50:52.075Z,6.32
2022-07-25T19:53:19.366Z,5.40
2022-07-25T19:55:46.441Z,5.70
2022-07-25T19:58:14.013Z,6.50
2022-07-25T20:00:41.075Z,7.05
2022-07-25T20:03:08.163Z,6.13
2022-07-25T20:05:35.367Z,6.88
2022-07-25T20:08:02.417Z,6.72
2022-07-25T20:10:29.855Z,7.55
2022-07-25T20:13:01.219Z,7.50
2022-07-25T20:15:29.357Z,7.57
2022-07-25T20:17:57.209Z,7.82
2022-07-25T20:20:25.594Z,8.20
2022-07-25T20:22:53.372Z,7.40
2022-07-25T20:25:21.504Z,8.43
2022-07-25T20:27:51.559Z,8.05
2022-07-25T20:30:19.249Z,8.13
2022-07-25T20:32:46.476Z,8.60
2022-07-25T20:35:13.777Z,8.50
2022-07-25T20:37:40.868Z,8.10
2022-07-25T20:40:09.567Z,8.48
2022-07-25T20:42:37.384Z,7.93
2022-07-25T20:45:06.332Z,9.20
2022-07-25T20:47:34.319Z,7.97
2022-07-25T20:50:01.808Z,8.25
2022-07-25T20:52:30.580Z,8.50
2022-07-25T20:54:57.771Z,8.05
2022-07-25T20:57:24.959Z,8.55
2022-07-25T20:59:52.043Z,9.02
2022-07-25T21:02:19.409Z,7.95
2022-07-25T21:04:48.762Z,8.10
2022-07-25T21:07:16.948Z,8.05
2022-07-25T21:09:44.464Z,8.15
2022-07-25T21:12:11.586Z,7.75
2022-07-25T21:14:38.735Z,8.27
2022-07-25T21:17:06.129Z,7.38
2022-07-25T21:19:33.258Z,6.47
2022-07-25T21:22:00.308Z,6.32
2022-07-25T21:24:27.515Z,5.43
2022-07-25T21:26:54.558Z,5.63
2022-07-25T21:29:21.628Z,4.72
2022-07-25T21:31:49.501Z,4.80
2022-07-25T21:34:16.741Z,4.38
2022-07-25T21:36:43.892Z,4.47
2022-07-25T21:39:11.184Z,3.95
2022-07-25T21:41:38.341Z,3.95
2022-07-25T21:44:05.660Z,3.88
2022-07-25T21:46:32.931Z,3.92
2022-07-25T21:49:18.534Z,3.65
2022-07-25T21:52:05.889Z,4.00
2022-07-25T21:54:33.560Z,4.28
2022-07-25T21:57:00.626Z,4.07
2022-07-25T21:59:27.825Z,4.30
2022-07-25T22:01:54.973Z,4.20
2022-07-25T22:04:22.335Z,5.15
2022-07-25T22:06:49.472Z,4.90
2022-07-25T22:09:16.558Z,4.10
2022-07-25T22:11:46.148Z,4.20
2022-07-25T22:14:14.314Z,4.57
2022-07-25T22:16:41.771Z,3.90
2022-07-25T22:19:09.542Z,4.00
2022-07-25T22:21:37.011Z,3.65
2022-07-25T22:24:04.238Z,4.10
2022-07-25T22:26:31.299Z,3.45
2022-07-25T22:28:58.419Z,3.70
2022-07-25T22:31:25.580Z,3.35
2022-07-25T22:33:52.915Z,3.20
2022-07-25T22:36:20.696Z,3.28
2022-07-25T22:38:47.953Z,3.72
2022-07-25T22:41:15.042Z,3.50
2022-07-25T22:43:56.541Z,3.58
2022-07-25T22:46:25.716Z,3.80
2022-07-25T22:48:53.067Z,3.65
2022-07-25T22:51:20.498Z,3.25
2022-07-25T22:53:47.586Z,3.90
2022-07-25T22:56:14.910Z,3.95
2022-07-25T22:58:41.997Z,3.70
2022-07-25T23:01:09.476Z,3.03
2022-07-25T23:03:36.739Z,3.55
2022-07-25T23:06:04.459Z,4.05
2022-07-25T23:08:31.590Z,3.80
2022-07-25T23:10:58.760Z,4.10
2022-07-25T23:13:25.858Z,4.15
2022-07-25T23:15:52.932Z,4.72
2022-07-25T23:18:20.153Z,3.72
2022-07-25T23:20:47.606Z,4.32
2022-07-25T23:23:14.675Z,3.78
2022-07-25T23:25:41.964Z,4.45
2022-07-25T23:28:09.005Z,4.15
2022-07-25T23:30:40.249Z,4.63
2022-07-25T23:33:08.671Z,4.05
2022-07-25T23:35:35.851Z,3.97
2022-07-25T23:38:03.828Z,3.65
2022-07-25T23:40:31.193Z,4.05
2022-07-25T23:42:58.274Z,4.22
2022-07-25T23:45:27.618Z,4.00
2022-07-25T23:47:55.854Z,4.40
2022-07-25T23:50:23.836Z,3.72
2022-07-25T23:52:51.860Z,4.00
2022-07-25T23:55:19.128Z,4.40
2022-07-25T23:57:46.688Z,5.07
